ENNM/OSY METAR and TAF weather

Enter ICAO airport designator
Station Type Date Time Source
ENNM METAR 2022/11/30 17:20 UTC NOAA

ENNM 301720Z 05009KT 9999 FEW039 SCT051 BKN068 00/M03 Q1033


Station Type Date Time Source
ENNM Decoded METAR 2022/11/30 17:20 UTC NOAA

Namsos Lufthavn, Norway (ENNM) 64-28N 011-35E 2M
Nov 30, 2022 - 12:20 PM EST / 2022.11.30 1720 UTC
Wind: from the NE (050 degrees) at 10 MPH (9 KT):0
Visibility: greater than 7 mile(s):0
Sky conditions: mostly cloudy
Temperature: 32 F (0 C)
Windchill: 23 F (-5 C):1
Dew Point: 26 F (-3 C)
Relative Humidity: 80%
Pressure (altimeter): 30.50 in. Hg (1033 hPa)
ob: ENNM 301720Z 05009KT 9999 FEW039 SCT051 BKN068 00/M03 Q1033
cycle: 17

Station Type Date Time Source
ENNM TAF UTC NOAA

Error!

Example: see airport list